Time;durP1;ratioP1;P1;durP2;ratioP2;P2;SDS_P1;SDS_P2;PMS_P1;PMS_P2;Temp;Humidity;BMP_temperature;BMP_pressure;BME280_temperature;BME280_humidity;BME280_pressure;Samples;Min_cycle;Max_cycle;Signal;HPM_P1;HPM_P2
2021/04/14 00:01:12;;;;;;;6.43;2.22;;;22.50;54.60;;;;;;5070621;28;20363;-61
2021/04/14 00:03:41;;;;;;;4.97;3.60;;;22.80;52.40;;;;;;5070108;28;20028;-62
2021/04/14 00:06:11;;;;;;;7.53;4.70;;;22.40;57.00;;;;;;5072194;28;20021;-58
2021/04/14 00:08:39;;;;;;;9.80;3.65;;;22.10;52.10;;;;;;5071579;28;20025;-65
2021/04/14 00:11:09;;;;;;;5.85;3.25;;;22.40;55.40;;;;;;5071885;28;20051;-58
2021/04/14 00:13:42;;;;;;;5.63;3.38;;;22.50;50.20;;;;;;5072317;28;20102;-63
2021/04/14 00:16:15;;;;;;;5.57;3.47;;;22.50;56.80;;;;;;5071909;28;20035;-64
2021/04/14 00:18:44;;;;;;;7.75;4.53;;;22.50;52.70;;;;;;5071621;28;20032;-59
2021/04/14 00:21:11;;;;;;;8.98;3.47;;;22.40;52.10;;;;;;5071665;28;20039;-59
2021/04/14 00:23:39;;;;;;;9.63;5.97;;;23.20;50.30;;;;;;5071814;28;20032;-61
2021/04/14 00:26:07;;;;;;;5.47;4.72;;;23.10;47.80;;;;;;5071675;28;20039;-62
2021/04/14 00:28:35;;;;;;;9.95;3.97;;;23.30;50.60;;;;;;5069795;28;20035;-61
2021/04/14 00:31:03;;;;;;;4.30;3.85;;;23.20;53.70;;;;;;5071531;28;20123;-63
2021/04/14 00:33:30;;;;;;;5.18;3.40;;;23.00;49.60;;;;;;5071346;28;20475;-62
2021/04/14 00:35:58;;;;;;;6.60;1.75;;;23.00;50.50;;;;;;5071694;28;20095;-58
2021/04/14 00:38:25;;;;;;;11.18;7.63;;;23.50;41.20;;;;;;5071031;28;20025;-60
2021/04/14 00:41:00;;;;;;;12.18;2.50;;;23.30;51.90;;;;;;5071527;28;20033;-61
2021/04/14 00:43:31;;;;;;;10.50;4.82;;;23.50;50.70;;;;;;5072304;28;20028;-62
2021/04/14 00:45:59;;;;;;;7.05;5.57;;;23.30;41.80;;;;;;5071408;28;20033;-60
2021/04/14 00:48:27;;;;;;;9.43;3.80;;;23.30;53.70;;;;;;5070966;28;20024;-62
2021/04/14 00:50:56;;;;;;;9.98;2.53;;;23.10;53.70;;;;;;5070578;28;20068;-61
2021/04/14 00:53:23;;;;;;;3.40;2.80;;;23.70;40.10;;;;;;5071538;28;20039;-61
2021/04/14 00:55:51;;;;;;;6.43;2.55;;;23.70;42.00;;;;;;5071509;28;20064;-62
2021/04/14 00:58:19;;;;;;;7.78;2.13;;;23.60;43.70;;;;;;5071048;28;20028;-60
2021/04/14 01:00:51;;;;;;;4.50;2.60;;;24.10;47.60;;;;;;5071191;28;20054;-60
2021/04/14 01:03:34;;;;;;;6.47;2.90;;;23.90;51.20;;;;;;5071442;28;20021;-60
2021/04/14 01:06:06;;;;;;;6.55;2.90;;;23.80;49.90;;;;;;5071534;28;20486;-59
2021/04/14 01:08:34;;;;;;;3.80;1.98;;;23.80;51.70;;;;;;5071421;28;20494;-59
2021/04/14 01:11:02;;;;;;;8.68;2.58;;;24.00;51.20;;;;;;5071207;28;20040;-60
2021/04/14 01:13:30;;;;;;;8.80;2.10;;;24.50;38.70;;;;;;5069489;28;20035;-63
2021/04/14 01:15:57;;;;;;;6.15;2.38;;;24.40;49.30;;;;;;5070933;28;20047;-62
2021/04/14 01:18:32;;;;;;;4.88;1.63;;;24.70;48.40;;;;;;5070800;28;20024;-62
2021/04/14 01:21:01;;;;;;;5.97;1.50;;;24.90;45.60;;;;;;5071409;28;20028;-63
2021/04/14 01:23:31;;;;;;;7.43;1.90;;;25.00;44.20;;;;;;5071259;28;20191;-63
2021/04/14 01:26:00;;;;;;;4.57;1.30;;;25.00;42.30;;;;;;5071185;28;20039;-61
2021/04/14 01:28:31;;;;;;;4.35;1.30;;;25.20;43.50;;;;;;5070938;28;20024;-63
2021/04/14 01:31:00;;;;;;;12.13;1.90;;;25.40;44.70;;;;;;5071000;28;20119;-59
2021/04/14 01:33:31;;;;;;;9.52;1.67;;;25.40;46.40;;;;;;5070915;28;20043;-62
2021/04/14 01:35:59;;;;;;;6.28;1.13;;;25.30;45.00;;;;;;5071422;28;20179;-63
2021/04/14 01:38:31;;;;;;;7.03;1.27;;;25.20;46.90;;;;;;5071191;28;20052;-61
2021/04/14 01:41:00;;;;;;;4.63;0.80;;;25.30;43.60;;;;;;5070938;28;20792;-63
2021/04/14 01:43:28;;;;;;;7.03;1.50;;;25.30;46.70;;;;;;5070688;28;20028;-62
2021/04/14 01:45:55;;;;;;;4.53;0.90;;;25.30;39.00;;;;;;5071016;28;20104;-63
2021/04/14 01:48:23;;;;;;;4.07;0.80;;;25.60;40.10;;;;;;5069669;28;20029;-62
2021/04/14 01:50:50;;;;;;;1.33;0.75;;;25.70;43.20;;;;;;5069833;28;20040;-61
2021/04/14 01:53:20;;;;;;;12.02;0.82;;;25.70;44.90;;;;;;5070276;28;20028;-62
2021/04/14 01:55:50;;;;;;;5.22;0.88;;;25.80;42.50;;;;;;5068212;28;20512;-62
2021/04/14 01:58:18;;;;;;;6.70;0.88;;;25.80;42.90;;;;;;5070168;28;20486;-61
2021/04/14 02:00:53;;;;;;;5.00;0.80;;;26.00;41.10;;;;;;5069721;28;20021;-62
2021/04/14 02:03:21;;;;;;;4.13;0.88;;;25.90;42.60;;;;;;5068167;28;20082;-61
2021/04/14 02:05:48;;;;;;;4.38;1.27;;;25.80;44.10;;;;;;5069712;28;20447;-57
2021/04/14 02:08:20;;;;;;;13.63;1.38;;;25.80;39.70;;;;;;5063290;28;20101;-63
2021/04/14 02:10:47;;;;;;;3.35;0.98;;;25.50;44.50;;;;;;5064246;28;20092;-56
2021/04/14 02:13:22;;;;;;;2.92;0.80;;;24.90;44.00;;;;;;5063448;28;20178;-59
2021/04/14 02:15:51;;;;;;;3.13;1.00;;;24.60;45.20;;;;;;5062864;28;20542;-56
2021/04/14 02:18:20;;;;;;;7.35;0.88;;;24.40;46.20;;;;;;5067882;28;20087;-55
2021/04/14 02:20:48;;;;;;;9.02;0.95;;;24.30;46.50;;;;;;5064276;28;20036;-59
2021/04/14 02:23:30;;;;;;;5.22;0.82;;;24.10;47.10;;;;;;5068655;28;20139;-59
2021/04/14 02:25:59;;;;;;;5.82;0.80;;;24.10;47.70;;;;;;5068543;28;20028;-56
2021/04/14 02:28:27;;;;;;;2.65;0.90;;;23.90;47.00;;;;;;5067163;28;20029;-56
2021/04/14 02:30:55;;;;;;;6.00;1.02;;;24.10;46.70;;;;;;5064432;28;20037;-66
2021/04/14 02:33:23;;;;;;;1.98;0.52;;;24.00;46.90;;;;;;5068514;28;20028;-54
2021/04/14 02:35:52;;;;;;;7.47;1.33;;;24.10;46.80;;;;;;5064362;28;20040;-56
2021/04/14 02:38:25;;;;;;;3.08;0.70;;;24.00;46.80;;;;;;5066775;28;20032;-59
2021/04/14 02:40:53;;;;;;;1.70;0.52;;;24.00;48.40;;;;;;5063535;28;20046;-61
2021/04/14 02:43:21;;;;;;;4.85;0.68;;;24.00;47.10;;;;;;5068581;28;20021;-62
2021/04/14 02:45:49;;;;;;;3.78;0.65;;;23.90;46.80;;;;;;5067523;28;20411;-59
2021/04/14 02:48:17;;;;;;;9.57;0.77;;;23.90;46.40;;;;;;5067210;28;20029;-62
2021/04/14 02:50:49;;;;;;;4.10;1.42;;;23.90;48.00;;;;;;5063189;28;20083;-62
2021/04/14 02:53:16;;;;;;;;;;;23.90;47.00;;;;;;5068838;28;20116;-56
2021/04/14 02:55:43;;;;;;;4.00;0.95;;;23.80;47.40;;;;;;5067667;28;19912;-58
2021/04/14 02:58:11;;;;;;;4.18;0.73;;;23.90;47.90;;;;;;5066461;28;20109;-58
2021/04/14 03:00:38;;;;;;;2.00;0.98;;;23.90;48.20;;;;;;5063166;28;20029;-59
2021/04/14 03:03:06;;;;;;;1.27;0.68;;;23.80;48.40;;;;;;5066908;28;20039;-54
2021/04/14 03:05:35;;;;;;;2.38;0.73;;;23.80;48.20;;;;;;5067926;28;20032;-59
2021/04/14 03:08:04;;;;;;;3.42;1.05;;;23.70;48.60;;;;;;5062319;28;20036;-53
2021/04/14 03:10:32;;;;;;;4.82;1.52;;;23.70;47.00;;;;;;5062666;28;20055;-54
2021/04/14 03:13:00;;;;;;;1.52;0.68;;;23.70;48.20;;;;;;5066920;28;20032;-54
2021/04/14 03:15:32;;;;;;;1.83;0.60;;;23.60;48.60;;;;;;5067692;28;20115;-56
2021/04/14 03:18:04;;;;;;;2.25;0.82;;;23.60;47.30;;;;;;5066233;28;20029;-55
2021/04/14 03:20:32;;;;;;;1.65;0.70;;;23.60;48.60;;;;;;5062716;28;20075;-57
2021/04/14 03:22:59;;;;;;;1.00;0.50;;;23.50;49.20;;;;;;5067685;28;20667;-53
2021/04/14 03:25:33;;;;;;;4.70;0.60;;;23.40;49.50;;;;;;5067606;28;20028;-55
2021/04/14 03:28:01;;;;;;;3.72;1.00;;;23.50;49.10;;;;;;5066325;28;20534;-55
2021/04/14 03:30:29;;;;;;;2.85;0.50;;;23.50;49.60;;;;;;5062144;28;20139;-52
2021/04/14 03:32:57;;;;;;;7.20;0.85;;;23.60;49.70;;;;;;5067205;28;20119;-55
2021/04/14 03:35:27;;;;;;;2.33;0.82;;;23.60;49.80;;;;;;5067802;28;20021;-53
2021/04/14 03:37:54;;;;;;;1.70;0.57;;;23.70;49.40;;;;;;5066043;28;20132;-51
2021/04/14 03:40:22;;;;;;;1.73;0.43;;;23.80;47.50;;;;;;5061014;28;20168;-57
2021/04/14 03:42:51;;;;;;;2.40;0.90;;;24.00;49.00;;;;;;5067764;28;20493;-54
2021/04/14 03:45:28;;;;;;;3.35;0.68;;;24.20;48.30;;;;;;5065687;28;20029;-53
2021/04/14 03:47:55;;;;;;;6.10;0.85;;;24.10;48.40;;;;;;5064773;28;20032;-60
2021/04/14 03:50:26;;;;;;;1.58;0.73;;;24.10;48.90;;;;;;5062199;28;20127;-56
2021/04/14 03:52:54;;;;;;;3.13;0.70;;;24.10;48.90;;;;;;5066734;28;20059;-54
2021/04/14 03:55:23;;;;;;;4.00;0.85;;;24.20;48.60;;;;;;5068052;28;20029;-61
2021/04/14 03:57:50;;;;;;;3.30;0.82;;;24.40;48.40;;;;;;5066842;28;20025;-55
2021/04/14 04:00:18;;;;;;;3.42;0.65;;;24.50;48.20;;;;;;5058058;28;20029;-52
2021/04/14 04:02:45;;;;;;;1.13;0.70;;;24.50;48.30;;;;;;5070619;28;20036;-61
2021/04/14 04:05:13;;;;;;;1.35;0.95;;;24.60;48.10;;;;;;5068012;28;20596;-58
2021/04/14 04:07:40;;;;;;;2.22;0.55;;;24.60;47.60;;;;;;5067184;28;20360;-59
2021/04/14 04:10:09;;;;;;;1.60;0.70;;;24.60;47.70;;;;;;5061309;28;20052;-57
2021/04/14 04:12:37;;;;;;;2.33;0.50;;;24.80;47.50;;;;;;5066590;28;20031;-51
2021/04/14 04:15:11;;;;;;;1.60;0.70;;;24.80;47.70;;;;;;5069089;28;20039;-54
2021/04/14 04:17:39;;;;;;;1.30;0.55;;;24.80;47.50;;;;;;5068736;28;20487;-60
2021/04/14 04:20:09;;;;;;;5.57;0.60;;;24.90;47.50;;;;;;5067918;28;20044;-60
2021/04/14 04:22:37;;;;;;;1.60;0.50;;;25.10;46.20;;;;;;5068447;28;20025;-49
2021/04/14 04:25:06;;;;;;;4.32;1.05;;;24.90;47.40;;;;;;5069219;28;20116;-63
2021/04/14 04:27:34;;;;;;;5.07;0.68;;;24.90;46.80;;;;;;5070611;28;20052;-62
2021/04/14 04:30:05;;;;;;;2.25;0.70;;;24.90;47.30;;;;;;5069522;28;20779;-66
2021/04/14 04:32:33;;;;;;;1.60;0.70;;;24.80;47.60;;;;;;5071870;28;20138;-62
2021/04/14 04:35:01;;;;;;;1.50;0.75;;;24.90;47.30;;;;;;5070552;28;20036;-62
2021/04/14 04:37:28;;;;;;;10.07;1.73;;;24.70;47.60;;;;;;5071946;28;20028;-66
2021/04/14 04:39:56;;;;;;;1.20;0.57;;;24.80;47.60;;;;;;5071711;28;20127;-63
2021/04/14 04:42:23;;;;;;;4.55;1.15;;;24.70;47.60;;;;;;5072013;28;20519;-59
2021/04/14 04:44:51;;;;;;;2.00;0.80;;;24.70;45.70;;;;;;5071949;28;20086;-59
2021/04/14 04:47:18;;;;;;;2.25;0.98;;;24.70;47.90;;;;;;5070262;28;20029;-56
2021/04/14 04:49:46;;;;;;;3.20;0.77;;;24.50;45.50;;;;;;5071824;28;20074;-65
2021/04/14 04:52:13;;;;;;;3.47;1.13;;;24.60;46.20;;;;;;5069952;28;20092;-56
2021/04/14 04:54:41;;;;;;;1.13;0.60;;;24.70;47.20;;;;;;5071795;28;20029;-61
2021/04/14 04:57:08;;;;;;;4.70;0.57;;;24.60;48.60;;;;;;5071551;28;20351;-66
2021/04/14 04:59:36;;;;;;;5.50;0.65;;;24.90;45.70;;;;;;5071500;28;20021;-58
2021/04/14 05:02:04;;;;;;;2.22;0.68;;;25.00;47.50;;;;;;5070907;28;20033;-61
2021/04/14 05:04:35;;;;;;;4.05;1.25;;;24.90;47.40;;;;;;5071126;28;20071;-60
2021/04/14 05:07:02;;;;;;;2.83;0.68;;;24.90;47.40;;;;;;5071119;28;20032;-64
2021/04/14 05:09:31;;;;;;;1.42;0.43;;;24.90;47.60;;;;;;5070718;28;20503;-60
2021/04/14 05:11:59;;;;;;;1.08;0.60;;;24.90;47.50;;;;;;5070888;28;20094;-52
2021/04/14 05:14:26;;;;;;;2.58;0.82;;;25.10;47.90;;;;;;5069475;28;20085;-66
2021/04/14 05:16:54;;;;;;;1.48;0.82;;;25.20;46.80;;;;;;5063976;28;20775;-58
2021/04/14 05:19:21;;;;;;;1.45;0.80;;;25.10;47.10;;;;;;5069146;28;20035;-62
2021/04/14 05:21:49;;;;;;;2.10;0.68;;;25.10;47.10;;;;;;5069462;28;20036;-49
2021/04/14 05:24:16;;;;;;;2.97;0.70;;;25.00;47.20;;;;;;5052781;28;20024;-56
2021/04/14 05:26:43;;;;;;;1.75;0.90;;;25.00;47.10;;;;;;5069116;28;20536;-58
2021/04/14 05:29:11;;;;;;;2.50;0.80;;;24.90;46.80;;;;;;5069457;28;20037;-61
2021/04/14 05:31:40;;;;;;;2.58;0.63;;;24.90;47.60;;;;;;5069632;28;20044;-59
2021/04/14 05:34:09;;;;;;;6.43;1.02;;;24.80;48.20;;;;;;5047142;28;20033;-53
2021/04/14 05:36:39;;;;;;;1.10;0.60;;;24.90;48.40;;;;;;5066589;28;20108;-55
2021/04/14 05:39:07;;;;;;;2.05;0.80;;;24.90;48.10;;;;;;5069564;28;20032;-55
2021/04/14 05:41:34;;;;;;;2.15;0.82;;;25.20;45.90;;;;;;5067776;28;20383;-60
2021/04/14 05:44:02;;;;;;;2.33;0.80;;;25.30;45.90;;;;;;5064788;28;20047;-57
2021/04/14 05:46:29;;;;;;;1.27;0.70;;;25.30;47.00;;;;;;5068437;28;20438;-54
2021/04/14 05:48:57;;;;;;;4.15;0.60;;;25.30;46.20;;;;;;5069239;28;20024;-62
2021/04/14 05:51:29;;;;;;;4.28;0.60;;;25.40;46.40;;;;;;5069728;28;20036;-58
2021/04/14 05:53:57;;;;;;;3.13;0.65;;;25.50;46.90;;;;;;5064636;28;20028;-56
2021/04/14 05:56:24;;;;;;;1.10;0.47;;;25.50;47.00;;;;;;5068715;28;20055;-58
2021/04/14 05:58:52;;;;;;;2.08;0.70;;;25.60;46.40;;;;;;5069588;28;20017;-62
2021/04/14 06:01:21;;;;;;;5.70;0.88;;;25.70;45.80;;;;;;5068077;28;20028;-65
2021/04/14 06:03:50;;;;;;;1.13;0.52;;;25.80;45.50;;;;;;5070210;28;20391;-62
2021/04/14 06:06:18;;;;;;;12.85;10.07;;;25.70;45.50;;;;;;5071482;28;20106;-62
2021/04/14 06:08:46;;;;;;;25.08;21.58;;;25.60;45.90;;;;;;5051337;28;20493;-60
2021/04/14 06:11:20;;;;;;;15.25;13.98;;;25.30;44.00;;;;;;5048674;28;20041;-61
2021/04/14 06:13:48;;;;;;;3.35;2.63;;;25.10;47.10;;;;;;5049853;28;20036;-56
2021/04/14 06:16:16;;;;;;;7.22;4.65;;;24.80;46.40;;;;;;5050037;28;20036;-60
2021/04/14 06:18:44;;;;;;;7.75;7.15;;;24.90;39.80;;;;;;5050299;28;20032;-57
2021/04/14 06:21:14;;;;;;;12.32;11.20;;;25.10;44.10;;;;;;5049715;28;20163;-60
2021/04/14 06:23:41;;;;;;;4.43;2.53;;;25.20;38.50;;;;;;5069265;28;20034;-56
2021/04/14 06:28:37;;;;;;;5.88;5.25;;;24.60;46.90;;;;;;5069661;28;20020;-59
2021/04/14 06:31:06;;;;;;;7.45;4.45;;;24.50;47.80;;;;;;5068747;28;20371;-60
2021/04/14 06:33:37;;;;;;;4.95;3.10;;;24.80;47.20;;;;;;5069706;28;20032;-64
2021/04/14 06:36:09;;;;;;;8.02;3.70;;;24.40;43.50;;;;;;5068130;28;20033;-61
2021/04/14 06:38:42;;;;;;;14.50;13.40;;;24.30;48.40;;;;;;5069091;28;20509;-64
2021/04/14 06:41:38;;;;;;;7.28;5.25;;;24.10;48.90;;;;;;5068024;28;20032;-58
2021/04/14 06:44:22;;;;;;;6.82;3.83;;;23.70;49.60;;;;;;5069435;28;20020;-63
2021/04/14 06:46:52;;;;;;;7.90;4.40;;;24.00;40.10;;;;;;5067918;28;20066;-60
2021/04/14 06:49:36;;;;;;;6.07;2.50;;;23.70;49.70;;;;;;5068987;28;20123;-62
2021/04/14 06:52:07;;;;;;;13.32;11.98;;;23.80;46.00;;;;;;5068611;28;20044;-62
2021/04/14 06:54:57;;;;;;;11.27;10.38;;;24.10;48.70;;;;;;5069220;28;20476;-68
2021/04/14 06:57:41;;;;;;;24.08;21.65;;;24.10;49.10;;;;;;5038088;28;20043;-59
2021/04/14 07:00:39;;;;;;;10.32;3.42;;;24.10;46.80;;;;;;5066819;28;20025;-55
2021/04/14 07:03:23;;;;;;;5.63;2.38;;;24.70;42.80;;;;;;5067381;28;20029;-57
2021/04/14 07:06:00;;;;;;;9.85;3.33;;;25.00;42.30;;;;;;5069132;28;20025;-61
2021/04/14 07:08:32;;;;;;;8.88;3.33;;;25.20;42.70;;;;;;5065583;28;20381;-58
2021/04/14 07:11:00;;;;;;;;;;;25.20;41.80;;;;;;5068653;28;20439;-57
2021/04/14 07:13:34;;;;;;;15.63;5.20;;;25.20;42.60;;;;;;5067792;28;20382;-59
2021/04/14 07:16:25;;;;;;;9.77;3.72;;;25.30;41.90;;;;;;5068712;28;20036;-58
2021/04/14 07:19:12;;;;;;;11.65;2.67;;;25.30;41.30;;;;;;5067216;28;20036;-57
2021/04/14 07:22:18;;;;;;;10.90;5.68;;;25.20;42.30;;;;;;5058275;28;20042;-61
2021/04/14 07:25:01;;;;;;;14.98;4.00;;;25.20;42.80;;;;;;5006465;28;20121;-57
2021/04/14 07:27:46;;;;;;;17.90;4.93;;;25.20;43.30;;;;;;5007159;28;20034;-54
2021/04/14 07:30:23;;;;;;;14.13;4.15;;;25.20;42.60;;;;;;5051351;28;20040;-57
2021/04/14 07:32:53;;;;;;;7.53;3.65;;;25.10;44.20;;;;;;5069385;28;20565;-56
2021/04/14 07:35:31;;;;;;;21.40;4.72;;;25.10;44.80;;;;;;5069355;28;20178;-55
2021/04/14 07:38:09;;;;;;;10.18;3.58;;;25.10;43.80;;;;;;5068662;28;20033;-52
2021/04/14 07:41:13;;;;;;;9.65;4.38;;;25.10;45.30;;;;;;5069228;28;20050;-58
2021/04/14 07:44:13;;;;;;;10.35;3.53;;;25.00;45.10;;;;;;5067530;28;20040;-56
2021/04/14 07:46:45;;;;;;;9.95;3.70;;;25.00;44.70;;;;;;5067803;28;20059;-58
2021/04/14 07:49:13;;;;;;;20.20;6.57;;;24.90;45.00;;;;;;5068458;28;20021;-58
2021/04/14 07:51:43;;;;;;;19.77;4.55;;;24.90;43.80;;;;;;5068619;28;20032;-56
2021/04/14 07:54:18;;;;;;;12.55;3.20;;;24.90;44.70;;;;;;5068253;28;20028;-60
2021/04/14 07:56:56;;;;;;;11.93;2.92;;;24.90;45.70;;;;;;5066715;28;20067;-56
2021/04/14 07:59:43;;;;;;;10.55;2.78;;;24.90;42.50;;;;;;5067892;28;20155;-61
2021/04/14 08:02:13;;;;;;;14.82;3.50;;;24.90;45.30;;;;;;5072269;28;20028;-58
2021/04/14 08:04:45;;;;;;;19.38;2.70;;;24.90;45.50;;;;;;5072536;28;20086;-58
2021/04/14 08:07:15;;;;;;;18.05;2.30;;;24.80;44.90;;;;;;5070311;28;20044;-58
2021/04/14 08:09:57;;;;;;;19.80;2.60;;;24.80;44.50;;;;;;5071729;28;20064;-62
2021/04/14 08:12:31;;;;;;;10.52;2.28;;;24.80;44.10;;;;;;5070370;28;20087;-58
2021/04/14 08:15:14;;;;;;;11.45;2.40;;;24.70;44.60;;;;;;5072176;28;20048;-53
2021/04/14 08:17:43;;;;;;;6.82;2.03;;;24.70;44.10;;;;;;5072617;28;20029;-57
2021/04/14 08:20:31;;;;;;;6.93;2.22;;;24.70;42.90;;;;;;5071809;28;20477;-54
2021/04/14 08:23:11;;;;;;;7.63;1.65;;;24.60;42.50;;;;;;5071682;28;20099;-52
2021/04/14 08:25:47;;;;;;;4.10;1.58;;;24.60;44.70;;;;;;5071846;28;20025;-56
2021/04/14 08:28:42;;;;;;;27.20;2.53;;;24.60;43.60;;;;;;5072301;28;20474;-60
2021/04/14 08:31:45;;;;;;;6.30;1.75;;;24.60;41.50;;;;;;5071663;28;20043;-58
2021/04/14 08:34:31;;;;;;;6.20;2.42;;;24.50;43.90;;;;;;5072069;28;20036;-55
2021/04/14 08:37:19;;;;;;;10.13;3.63;;;24.50;43.30;;;;;;5071690;28;20061;-56
2021/04/14 08:40:19;;;;;;;14.38;4.70;;;24.60;39.40;;;;;;5071387;28;20032;-53
2021/04/14 08:42:47;;;;;;;10.13;3.58;;;24.60;40.90;;;;;;5069857;28;20525;-59
2021/04/14 08:45:31;;;;;;;15.43;5.43;;;24.60;44.20;;;;;;5070619;28;20050;-56
2021/04/14 08:48:11;;;;;;;7.78;5.03;;;24.50;44.10;;;;;;5066939;28;20093;-58
2021/04/14 08:50:50;;;;;;;15.25;6.45;;;24.60;43.30;;;;;;5071667;28;20036;-58
2021/04/14 08:53:21;;;;;;;9.27;4.93;;;24.50;42.20;;;;;;5071693;28;20032;-54
2021/04/14 08:55:48;;;;;;;12.55;3.88;;;24.50;38.90;;;;;;5070166;28;20047;-58
2021/04/14 08:58:19;;;;;;;8.88;5.15;;;24.60;38.60;;;;;;5071692;28;20028;-59
2021/04/14 09:00:47;;;;;;;14.73;5.53;;;24.70;39.40;;;;;;5071395;28;20062;-61
2021/04/14 09:03:20;;;;;;;10.15;4.85;;;24.70;39.90;;;;;;5068840;28;20032;-60
2021/04/14 09:05:49;;;;;;;24.88;6.15;;;24.80;38.50;;;;;;5071656;28;20107;-60
2021/04/14 09:08:23;;;;;;;10.02;4.80;;;24.80;38.20;;;;;;5071653;28;20028;-60
2021/04/14 09:11:04;;;;;;;10.68;5.47;;;24.90;37.40;;;;;;5070629;28;20058;-60
2021/04/14 09:13:47;;;;;;;8.32;4.32;;;24.90;36.70;;;;;;5071593;28;20032;-61
2021/04/14 09:16:30;;;;;;;6.97;3.40;;;24.90;38.20;;;;;;5071369;28;20119;-60
2021/04/14 09:19:12;;;;;;;19.65;10.68;;;24.90;37.20;;;;;;5071057;28;20038;-61
2021/04/14 09:21:49;;;;;;;11.88;3.50;;;24.90;37.80;;;;;;5071373;28;20445;-62
2021/04/14 09:24:35;;;;;;;9.68;5.28;;;24.90;37.50;;;;;;5070889;28;20134;-56
2021/04/14 09:27:05;;;;;;;12.93;4.05;;;24.90;40.20;;;;;;5071157;28;20059;-60
2021/04/14 09:29:39;;;;;;;15.55;3.33;;;24.90;40.70;;;;;;5070826;28;20021;-58
2021/04/14 09:32:13;;;;;;;16.25;3.45;;;24.80;42.00;;;;;;5070709;28;20040;-60
2021/04/14 09:34:50;;;;;;;25.42;4.80;;;24.80;44.60;;;;;;5070540;28;20032;-62
2021/04/14 09:37:18;;;;;;;12.57;3.10;;;24.80;47.00;;;;;;5070902;28;20040;-60
2021/04/14 09:39:45;;;;;;;17.55;3.17;;;24.70;40.40;;;;;;5070438;28;20024;-59
2021/04/14 09:42:23;;;;;;;13.02;2.50;;;24.70;43.10;;;;;;5070724;28;20081;-61
2021/04/14 09:44:55;;;;;;;10.82;3.97;;;24.70;38.20;;;;;;5070448;28;20111;-58
2021/04/14 09:47:28;;;;;;;11.05;2.40;;;24.70;41.90;;;;;;5070696;28;20028;-59
2021/04/14 09:49:58;;;;;;;15.73;3.63;;;24.50;39.80;;;;;;5070018;28;20024;-60
2021/04/14 09:52:51;;;;;;;8.65;2.13;;;24.50;40.60;;;;;;5070568;28;20135;-58
2021/04/14 09:55:34;;;;;;;7.40;1.92;;;24.50;42.70;;;;;;5062491;28;20044;-60
2021/04/14 09:58:25;;;;;;;10.35;2.25;;;24.50;39.30;;;;;;5070461;28;20159;-63
2021/04/14 10:00:57;;;;;;;10.98;2.58;;;24.40;41.50;;;;;;5070738;28;20495;-60
2021/04/14 10:03:25;;;;;;;;;;;24.50;43.40;;;;;;5070662;28;20029;-58
2021/04/14 10:05:58;;;;;;;13.48;2.47;;;24.50;41.80;;;;;;5070028;28;19909;-59
2021/04/14 10:08:25;;;;;;;5.50;1.83;;;24.40;42.50;;;;;;5068998;28;20031;-58
2021/04/14 10:10:53;;;;;;;7.28;1.83;;;24.30;40.60;;;;;;5069924;28;20067;-58
2021/04/14 10:13:20;;;;;;;10.18;3.08;;;24.30;40.70;;;;;;5070192;28;20124;-59
2021/04/14 10:15:49;;;;;;;10.75;3.90;;;24.30;41.50;;;;;;5069651;28;20103;-56
2021/04/14 10:18:24;;;;;;;17.17;3.05;;;24.30;47.50;;;;;;5068514;28;20032;-59
2021/04/14 10:20:53;;;;;;;15.02;2.90;;;24.30;41.70;;;;;;5069931;28;20355;-57
2021/04/14 10:23:25;;;;;;;12.20;2.42;;;24.30;43.00;;;;;;5069912;28;20070;-60
2021/04/14 10:26:02;;;;;;;;;;;24.30;43.60;;;;;;5070646;28;20110;-58
2021/04/14 10:28:29;;;;;;;6.18;2.30;;;24.20;47.40;;;;;;5069724;28;19916;-59
2021/04/14 10:31:08;;;;;;;8.02;1.80;;;24.20;45.30;;;;;;5069660;28;20046;-59
2021/04/14 10:33:38;;;;;;;11.07;3.03;;;24.20;40.90;;;;;;5069816;28;20029;-60
2021/04/14 10:36:33;;;;;;;11.88;3.00;;;24.20;42.00;;;;;;5068049;28;20029;-60
2021/04/14 10:39:16;;;;;;;9.40;2.38;;;24.20;42.90;;;;;;5069711;28;20028;-60
2021/04/14 10:41:44;;;;;;;11.10;2.30;;;24.20;42.40;;;;;;5069252;28;20463;-57
2021/04/14 10:44:38;;;;;;;10.85;2.20;;;24.20;42.80;;;;;;5069128;28;20036;-58
2021/04/14 10:47:27;;;;;;;9.23;2.28;;;24.10;41.70;;;;;;5064609;28;20102;-58
2021/04/14 10:50:12;;;;;;;22.65;3.15;;;24.10;41.60;;;;;;5067688;28;20033;-58
2021/04/14 10:52:41;;;;;;;10.38;2.13;;;24.00;48.50;;;;;;5069458;28;20110;-58
2021/04/14 10:55:20;;;;;;;17.05;2.33;;;23.80;50.80;;;;;;5069198;28;20029;-57
2021/04/14 10:57:56;;;;;;;12.02;2.83;;;23.70;50.50;;;;;;5069165;28;20044;-61
2021/04/14 11:00:30;;;;;;;16.10;2.70;;;23.60;49.10;;;;;;5069213;28;20045;-60
2021/04/14 11:03:05;;;;;;;24.70;2.95;;;23.50;50.30;;;;;;5069395;28;20501;-60
2021/04/14 11:05:35;;;;;;;10.15;2.25;;;23.40;50.70;;;;;;5069339;28;20021;-60
2021/04/14 11:08:03;;;;;;;9.10;2.40;;;23.40;50.40;;;;;;5068969;28;20032;-62
2021/04/14 11:10:35;;;;;;;16.95;3.15;;;23.30;48.30;;;;;;5068563;28;20063;-52
2021/04/14 11:13:06;;;;;;;6.60;1.90;;;23.30;49.50;;;;;;5060098;28;21368;-56
2021/04/14 11:15:41;;;;;;;9.98;2.70;;;23.30;49.80;;;;;;5066162;28;20036;-57
2021/04/14 11:18:11;;;;;;;10.88;2.17;;;23.20;52.20;;;;;;5064993;28;20067;-53
2021/04/14 11:20:49;;;;;;;11.43;2.58;;;23.20;50.60;;;;;;5066164;28;20953;-54
2021/04/14 11:23:31;;;;;;;12.68;2.58;;;23.10;51.40;;;;;;5065609;28;20047;-54
2021/04/14 11:26:05;;;;;;;13.90;2.72;;;23.10;52.40;;;;;;5066072;28;20429;-60
2021/04/14 11:28:52;;;;;;;8.18;2.00;;;23.10;50.40;;;;;;5065608;28;20029;-56
2021/04/14 11:31:34;;;;;;;14.77;3.13;;;23.00;52.40;;;;;;5063591;28;20063;-57
2021/04/14 11:34:13;;;;;;;13.60;2.33;;;23.00;53.40;;;;;;5067230;28;20321;-59
2021/04/14 11:36:41;;;;;;;10.60;2.47;;;23.00;50.90;;;;;;5065678;28;20036;-61
2021/04/14 11:39:12;;;;;;;8.82;2.53;;;23.00;53.40;;;;;;5065683;28;20044;-65
2021/04/14 11:42:04;;;;;;;15.35;2.50;;;23.00;52.80;;;;;;5063212;28;20036;-60
2021/04/14 11:44:42;;;;;;;;;;;22.90;53.00;;;;;;5067930;28;20074;-58
2021/04/14 11:47:39;;;;;;;11.20;2.70;;;22.80;52.60;;;;;;5068565;28;20434;-61
2021/04/14 11:50:23;;;;;;;6.32;2.25;;;22.80;52.20;;;;;;5068167;28;20459;-57
2021/04/14 11:52:54;;;;;;;4.90;2.05;;;22.80;51.70;;;;;;5062680;28;20697;-52
2021/04/14 11:55:21;;;;;;;8.90;2.50;;;22.80;53.50;;;;;;5067012;28;20029;-51
2021/04/14 11:58:24;;;;;;;4.78;2.28;;;22.70;53.50;;;;;;5068406;28;20452;-51
2021/04/14 12:00:54;;;;;;;9.30;2.67;;;22.70;53.40;;;;;;5061110;28;20032;-54
2021/04/14 12:03:39;;;;;;;6.55;1.77;;;22.70;54.00;;;;;;5066265;28;20036;-56
2021/04/14 12:06:07;;;;;;;6.13;2.30;;;22.70;53.60;;;;;;5071316;28;20031;-56
2021/04/14 12:08:35;;;;;;;5.22;1.98;;;22.60;53.50;;;;;;5067853;28;20036;-57
2021/04/14 12:11:05;;;;;;;2.67;1.50;;;22.60;50.70;;;;;;5063514;28;20037;-61
2021/04/14 12:13:32;;;;;;;7.35;1.80;;;22.60;53.70;;;;;;5067203;28;20033;-61
2021/04/14 12:15:59;;;;;;;12.40;2.10;;;22.50;53.00;;;;;;5066169;28;20086;-59
2021/04/14 12:18:27;;;;;;;3.35;1.80;;;22.50;53.50;;;;;;5068041;28;20467;-59
2021/04/14 12:20:56;;;;;;;9.73;1.63;;;22.50;54.10;;;;;;5065327;28;20029;-59
2021/04/14 12:23:23;;;;;;;5.68;1.88;;;22.50;54.30;;;;;;5065018;28;20032;-64
2021/04/14 12:25:51;;;;;;;7.85;2.35;;;22.50;53.30;;;;;;5067369;28;20391;-57
2021/04/14 12:28:18;;;;;;;8.50;1.80;;;22.50;54.70;;;;;;5067519;28;20052;-62
2021/04/14 12:30:45;;;;;;;9.60;1.83;;;22.40;55.20;;;;;;5067376;28;20085;-57
2021/04/14 12:33:13;;;;;;;7.70;2.22;;;22.40;54.50;;;;;;5062578;28;20043;-54
2021/04/14 12:35:40;;;;;;;6.82;1.70;;;22.40;53.10;;;;;;5067524;28;20454;-64
2021/04/14 12:38:08;;;;;;;7.72;2.15;;;22.40;53.90;;;;;;5067801;28;20025;-62
2021/04/14 12:40:35;;;;;;;5.57;1.88;;;22.40;54.30;;;;;;5066350;28;20082;-62
2021/04/14 12:43:03;;;;;;;4.07;1.88;;;22.40;54.60;;;;;;5062416;28;20059;-57
2021/04/14 12:45:36;;;;;;;4.88;2.15;;;22.30;54.40;;;;;;5063516;28;20109;-61
2021/04/14 12:48:08;;;;;;;4.60;2.03;;;22.30;54.10;;;;;;5071287;28;20033;-60
2021/04/14 12:50:35;;;;;;;;;;;22.40;54.80;;;;;;5071756;28;20037;-59
2021/04/14 12:53:06;;;;;;;4.72;1.70;;;22.40;52.20;;;;;;5063947;28;20317;-57
2021/04/14 12:55:45;;;;;;;3.53;1.95;;;22.30;53.90;;;;;;5065724;28;20112;-56
2021/04/14 12:58:19;;;;;;;13.07;2.08;;;22.30;54.00;;;;;;5070507;28;20036;-59
2021/04/14 13:00:48;;;;;;;7.53;2.20;;;22.30;53.80;;;;;;5071070;28;20036;-63
2021/04/14 13:03:44;;;;;;;6.72;2.30;;;22.30;54.00;;;;;;5067758;28;20025;-58
2021/04/14 13:06:39;;;;;;;3.85;1.40;;;22.30;53.40;;;;;;5071848;28;20020;-57
2021/04/14 13:09:09;;;;;;;8.30;2.67;;;22.20;53.90;;;;;;5066032;28;20052;-52
2021/04/14 13:11:48;;;;;;;5.03;1.80;;;22.20;54.60;;;;;;5065489;28;20032;-57
2021/04/14 13:14:16;;;;;;;4.80;2.10;;;22.20;54.60;;;;;;5071647;28;20025;-55
2021/04/14 13:16:52;;;;;;;4.65;1.98;;;22.20;53.90;;;;;;5067401;28;20032;-56